Weather observations for the past three days for
Madera Municipal Airport
Imperial (Metric)
Date Time (pdt) Wind (mph) Vis. (mi.) Weather Sky Cond. Temperature (ºF) Relative Humidity Wind Chill (°F) Heat Index (°F) Pressure Precipitation (in)
Air Dwpt 6 hour altimeter (in) sea level (mb) 1 hr 3 hr 6 hr
Max. Min.
10 08:53 NW 5 10.00 Fair CLR 69.1 55 61% 29.94 1013.5
10 07:53 NW 3 8.00 Fair CLR 62.1 54 75% 29.93 1013.2
10 06:53 NW 3 10.00 Fair CLR 57.9 54 87% 29.91 1012.6
10 05:53 NW 3 10.00 Fair CLR 55 52 90% 29.9 1012.2
10 04:53 W 3 10.00 Fair CLR 57.9 54 69.1 57 87% 29.89 1012.0
10 03:53 NW 3 10.00 Fair CLR 57.9 53.1 84% 29.89 1011.8
10 02:53 NW 3 10.00 Fair CLR 60.1 54 80% 29.89 1011.8
10 01:53 W 9 10.00 Fair CLR 62.1 55.9 80% 29.89 1011.8
10 00:53 NW 6 10.00 Fair CLR 64 55.9 75% 29.89 1011.9
09 23:53 NW 7 10.00 Fair CLR 66.9 57 71% 29.89 1011.9
09 22:53 W 6 10.00 Fair CLR 69.1 55.9 90 68 63% 29.89 1011.8
09 21:53 NW 5 10.00 Fair CLR 70 55.9 61% 29.88 1011.6
09 20:53 NW 8 10.00 Fair CLR 73 55 53% 29.86 1010.8
09 19:53 NW 7 10.00 Fair CLR 77 55 47% 78 29.85 1010.4
09 18:53 NW 8 10.00 Fair CLR 86 51.1 30% 84 29.84 1010.1
09 17:53 W 10 10.00 Fair CLR 89.1 52 28% 87 29.84 1010.2
09 16:53 W 10 10.00 Fair CLR 90 52 90 75.9 27% 87 29.84 1010.4
09 15:53 W 10 10.00 Fair CLR 89.1 55.9 33% 87 29.86 1010.8
09 14:53 W 7 10.00 Fair CLR 87.1 55 34% 85 29.88 1011.7
09 13:53 W 9 10.00 Fair CLR 84.9 57.9 40% 84 29.91 1012.5
09 12:53 W 7 10.00 Fair CLR 82 55.9 41% 82 29.92 1013.0
09 11:53 Vrbl 3 10.00 Fair CLR 79 55.9 45% 80 29.95 1013.8
09 10:53 W 7 10.00 Fair CLR 75.9 55.9 75.9 50 50% 78 29.95 1014.0
09 09:53 W 7 10.00 Fair CLR 72 53.1 52% 29.96 1014.3
09 08:53 W 8 10.00 Fair CLR 69.1 52 55% 29.97 1014.6
09 07:53 NW 5 10.00 Fair CLR 62.1 53.1 73% 29.96 1014.4
09 06:53 NW 6 10.00 Fair CLR 55.9 52 87% 29.95 1014.1
09 05:53 NW 3 10.00 Fair CLR 50 48.9 96% 29.94 1013.5
09 04:53 Calm 10.00 Fair CLR 53.1 51.1 66 51.1 93% 29.94 1013.7
09 03:53 NW 3 10.00 Fair CLR 55 51.1 87% 29.94 1013.6
09 02:53 W 5 10.00 Fair CLR 55.9 51.1 84% 29.94 1013.6
09 01:53 W 7 10.00 Fair CLR 57.9 52 81% 29.94 1013.7
09 00:53 NW 6 10.00 Fair CLR 61 54 78% 29.95 1014.0
08 23:53 NW 5 10.00 Fair CLR 61 55.9 84% 29.95 1014.0
08 22:53 NW 9 10.00 Fair CLR 64.9 57 88 63 76% 29.95 1013.8
08 20:53 NW 9 10.00 Fair CLR 70 55 59% 29.92 1012.9
08 19:53 NW 8 10.00 Fair CLR 73.9 52 46% 29.91 1012.6
08 18:53 NW 10 10.00 Fair CLR 82 46.9 29% 80 29.9 1012.3
08 17:53 NW 15 10.00 Fair CLR 84.9 52 32% 83 29.91 1012.5
08 16:53 NW 13 G 21 10.00 Fair CLR 87.1 51.1 88 75 29% 85 29.92 1012.9
08 15:53 W 12 G 20 10.00 Fair CLR 88 52 29% 86 29.93 1013.4
08 14:53 NW 10 10.00 Fair CLR 87.1 50 28% 84 29.96 1014.3
08 13:53 NW 10 G 18 10.00 Fair CLR 84 51.1 32% 82 29.98 1014.9
08 12:53 NW 9 10.00 Fair CLR 82.9 51.1 33% 81 30 1015.5
08 11:53 NW 12 10.00 Fair CLR 79 53.1 41% 79 30.02 1016.2
08 10:53 NW 9 10.00 Fair CLR 75 53.1 75 52 46% 78 30.03 1016.7
08 09:53 W 7 10.00 Fair CLR 71.1 54 55% 30.04 1016.9
08 08:53 W 9 10.00 Fair CLR 66 53.1 63% 30.04 1017.0
08 07:53 NW 8 10.00 Fair CLR 60.1 53.1 78% 30.04 1017.0
08 06:53 NW 5 10.00 Fair CLR 55 52 90% 30.03 1016.6
08 05:53 W 3 10.00 Fair CLR 53.1 51.1 93% 30.01 1015.8
08 04:53 W 7 10.00 Fair CLR 55 52 66.9 55 90% 30 1015.6
08 03:53 NW 6 10.00 Fair CLR 57 53.1 87% 29.99 1015.5
08 02:53 NW 6 10.00 Fair CLR 60.1 54 80% 29.99 1015.3
08 01:53 NW 6 10.00 Fair CLR 60.1 55.9 86% 29.98 1015.0
08 00:53 NW 6 10.00 Fair CLR 62.1 57.9 86% 29.99 1015.2
07 23:53 W 7 10.00 Fair CLR 64.9 59 81% 29.98 1014.9
07 22:53 NW 6 10.00 Fair CLR 66.9 57.9 87.1 66.9 73% 29.98 1014.8
07 21:53 NW 7 10.00 Fair CLR 70 59 68% 29.97 1014.7
07 20:53 NW 8 10.00 Fair CLR 72 59 64% 29.96 1014.2
07 19:53 NW 8 10.00 Fair CLR 77 61 58% 79 29.94 1013.6
07 18:53 NW 12 10.00 Fair CLR 84 60.1 44% 84 29.93 1013.2
07 17:53 W 10 10.00 Fair CLR 86 59 40% 85 29.93 1013.2
07 16:53 W 8 10.00 Fair CLR 87.1 57.9 88 75 37% 86 29.94 1013.6
07 15:53 W 12 10.00 Fair CLR 87.1 57.9 37% 86 29.96 1014.2
07 14:53 W 9 10.00 Fair CLR 84.9 59 42% 85 29.99 1015.2
07 13:53 W 7 10.00 Fair CLR 82 57.9 44% 82 30.01 1015.9
07 12:53 W 8 10.00 Fair CLR 81 57.9 45% 81 30.03 1016.7
07 11:53 W 5 10.00 Fair CLR 78.1 57 48% 79 30.05 1017.3
07 10:53 Vrbl 6 10.00 Fair CLR 75 57.9 75 54 55% 78 30.06 1017.8
07 09:53 Vrbl 6 10.00 Fair CLR 71.1 57.9 63% 30.08 1018.2
Date Time (pdt) Wind (mph) Vis. (mi.) Weather Sky Cond. Air Dwpt Max. Min. Relative Humidity Wind Chill (°F) Heat Index (°F) altimeter (in) sea level (mb) 1 hr 3 hr 6 hr
6 hour
Temperature (ºF) Pressure Precipitation (in)